sensor_id;sensor_type;location;lat;lon;timestamp;temperature;humidity
84276;DHT22;74432;51.212;3.254;2024-03-08T00:00:11;7.20;76.70
84276;DHT22;74432;51.212;3.254;2024-03-08T00:02:44;7.00;76.70
84276;DHT22;74432;51.212;3.254;2024-03-08T00:05:10;6.90;77.50
84276;DHT22;74432;51.212;3.254;2024-03-08T00:07:37;6.90;77.30
84276;DHT22;74432;51.212;3.254;2024-03-08T00:10:04;6.80;77.70
84276;DHT22;74432;51.212;3.254;2024-03-08T00:12:30;6.90;77.40
84276;DHT22;74432;51.212;3.254;2024-03-08T00:14:56;6.80;77.40
84276;DHT22;74432;51.212;3.254;2024-03-08T00:17:22;6.90;77.00
84276;DHT22;74432;51.212;3.254;2024-03-08T00:19:50;6.90;77.50
84276;DHT22;74432;51.212;3.254;2024-03-08T00:22:17;6.70;77.70
84276;DHT22;74432;51.212;3.254;2024-03-08T00:24:43;6.80;77.90
84276;DHT22;74432;51.212;3.254;2024-03-08T00:27:09;6.60;78.30
84276;DHT22;74432;51.212;3.254;2024-03-08T00:29:35;6.70;78.00
84276;DHT22;74432;51.212;3.254;2024-03-08T00:32:01;6.80;77.70
84276;DHT22;74432;51.212;3.254;2024-03-08T00:34:27;6.80;77.90
84276;DHT22;74432;51.212;3.254;2024-03-08T00:36:52;6.80;77.90
84276;DHT22;74432;51.212;3.254;2024-03-08T00:39:18;6.80;78.30
84276;DHT22;74432;51.212;3.254;2024-03-08T00:41:47;6.70;78.50
84276;DHT22;74432;51.212;3.254;2024-03-08T00:44:13;6.80;78.40
84276;DHT22;74432;51.212;3.254;2024-03-08T00:46:39;6.60;78.80
84276;DHT22;74432;51.212;3.254;2024-03-08T00:49:05;6.70;79.30
84276;DHT22;74432;51.212;3.254;2024-03-08T00:51:32;6.60;79.30
84276;DHT22;74432;51.212;3.254;2024-03-08T00:53:58;6.60;79.70
84276;DHT22;74432;51.212;3.254;2024-03-08T00:56:23;6.50;80.10
84276;DHT22;74432;51.212;3.254;2024-03-08T00:58:50;6.50;81.40
84276;DHT22;74432;51.212;3.254;2024-03-08T01:01:18;6.50;80.20
84276;DHT22;74432;51.212;3.254;2024-03-08T01:03:44;6.60;80.10
84276;DHT22;74432;51.212;3.254;2024-03-08T01:06:09;6.70;80.10
84276;DHT22;74432;51.212;3.254;2024-03-08T01:08:37;6.60;80.10
84276;DHT22;74432;51.212;3.254;2024-03-08T01:11:06;6.50;80.30
84276;DHT22;74432;51.212;3.254;2024-03-08T01:13:32;6.40;80.90
84276;DHT22;74432;51.212;3.254;2024-03-08T01:15:57;6.30;81.40
84276;DHT22;74432;51.212;3.254;2024-03-08T01:18:23;6.40;81.20
84276;DHT22;74432;51.212;3.254;2024-03-08T01:20:49;6.30;81.40
84276;DHT22;74432;51.212;3.254;2024-03-08T01:23:14;6.30;81.60
84276;DHT22;74432;51.212;3.254;2024-03-08T01:25:40;6.30;81.40
84276;DHT22;74432;51.212;3.254;2024-03-08T01:28:07;6.50;81.10
84276;DHT22;74432;51.212;3.254;2024-03-08T01:30:32;6.50;80.80
84276;DHT22;74432;51.212;3.254;2024-03-08T01:33:00;6.40;81.10
84276;DHT22;74432;51.212;3.254;2024-03-08T01:35:26;6.40;81.30
84276;DHT22;74432;51.212;3.254;2024-03-08T01:37:53;6.40;81.60
84276;DHT22;74432;51.212;3.254;2024-03-08T01:40:18;6.50;80.90
84276;DHT22;74432;51.212;3.254;2024-03-08T01:42:44;6.30;81.30
84276;DHT22;74432;51.212;3.254;2024-03-08T01:45:10;6.40;80.60
84276;DHT22;74432;51.212;3.254;2024-03-08T01:47:37;6.30;81.10
84276;DHT22;74432;51.212;3.254;2024-03-08T01:50:03;6.20;81.30
84276;DHT22;74432;51.212;3.254;2024-03-08T01:52:32;6.20;81.70
84276;DHT22;74432;51.212;3.254;2024-03-08T01:55:03;6.30;81.20
84276;DHT22;74432;51.212;3.254;2024-03-08T01:57:32;6.30;81.10
84276;DHT22;74432;51.212;3.254;2024-03-08T02:00:00;6.30;81.40
84276;DHT22;74432;51.212;3.254;2024-03-08T02:02:32;6.30;81.50
84276;DHT22;74432;51.212;3.254;2024-03-08T02:04:58;6.20;81.70
84276;DHT22;74432;51.212;3.254;2024-03-08T02:07:23;6.20;81.60
84276;DHT22;74432;51.212;3.254;2024-03-08T02:09:49;6.30;80.50
84276;DHT22;74432;51.212;3.254;2024-03-08T02:12:16;6.30;80.20
84276;DHT22;74432;51.212;3.254;2024-03-08T02:14:42;6.20;80.60
84276;DHT22;74432;51.212;3.254;2024-03-08T02:17:09;6.10;81.10
84276;DHT22;74432;51.212;3.254;2024-03-08T02:19:35;6.10;81.50
84276;DHT22;74432;51.212;3.254;2024-03-08T02:22:01;5.90;81.80
84276;DHT22;74432;51.212;3.254;2024-03-08T02:24:30;5.90;82.10
84276;DHT22;74432;51.212;3.254;2024-03-08T02:26:56;6.00;81.70
84276;DHT22;74432;51.212;3.254;2024-03-08T02:29:22;6.00;81.70
84276;DHT22;74432;51.212;3.254;2024-03-08T02:31:51;6.00;81.40
84276;DHT22;74432;51.212;3.254;2024-03-08T02:34:16;6.10;80.90
84276;DHT22;74432;51.212;3.254;2024-03-08T02:36:42;5.90;81.10
84276;DHT22;74432;51.212;3.254;2024-03-08T02:39:08;6.00;81.90
84276;DHT22;74432;51.212;3.254;2024-03-08T02:41:36;5.90;81.40
84276;DHT22;74432;51.212;3.254;2024-03-08T02:44:02;5.80;81.40
84276;DHT22;74432;51.212;3.254;2024-03-08T02:46:27;5.90;81.20
84276;DHT22;74432;51.212;3.254;2024-03-08T02:48:53;6.00;80.40
84276;DHT22;74432;51.212;3.254;2024-03-08T02:51:19;6.00;79.80
84276;DHT22;74432;51.212;3.254;2024-03-08T02:53:45;5.90;81.70
84276;DHT22;74432;51.212;3.254;2024-03-08T02:56:14;5.90;81.10
84276;DHT22;74432;51.212;3.254;2024-03-08T02:58:42;5.90;80.80
84276;DHT22;74432;51.212;3.254;2024-03-08T03:01:08;5.90;80.40
84276;DHT22;74432;51.212;3.254;2024-03-08T03:03:35;6.00;79.80
84276;DHT22;74432;51.212;3.254;2024-03-08T03:06:01;6.00;79.70
84276;DHT22;74432;51.212;3.254;2024-03-08T03:08:27;6.10;79.50
84276;DHT22;74432;51.212;3.254;2024-03-08T03:10:53;6.00;79.10
84276;DHT22;74432;51.212;3.254;2024-03-08T03:13:22;5.90;79.20
84276;DHT22;74432;51.212;3.254;2024-03-08T03:15:47;5.90;79.80
84276;DHT22;74432;51.212;3.254;2024-03-08T03:18:13;5.90;79.00
84276;DHT22;74432;51.212;3.254;2024-03-08T03:20:39;5.80;79.80
84276;DHT22;74432;51.212;3.254;2024-03-08T03:23:11;5.70;79.80
84276;DHT22;74432;51.212;3.254;2024-03-08T03:25:40;5.70;79.50
84276;DHT22;74432;51.212;3.254;2024-03-08T03:28:07;5.80;79.70
84276;DHT22;74432;51.212;3.254;2024-03-08T03:30:33;5.80;79.60
84276;DHT22;74432;51.212;3.254;2024-03-08T03:32:59;6.00;78.40
84276;DHT22;74432;51.212;3.254;2024-03-08T03:35:32;6.00;78.10
84276;DHT22;74432;51.212;3.254;2024-03-08T03:37:58;5.70;78.50
84276;DHT22;74432;51.212;3.254;2024-03-08T03:40:33;5.70;78.50
84276;DHT22;74432;51.212;3.254;2024-03-08T03:43:00;5.80;78.10
84276;DHT22;74432;51.212;3.254;2024-03-08T03:45:26;5.70;78.20
84276;DHT22;74432;51.212;3.254;2024-03-08T03:47:51;5.60;78.70
84276;DHT22;74432;51.212;3.254;2024-03-08T03:50:20;5.70;78.90
84276;DHT22;74432;51.212;3.254;2024-03-08T03:52:47;5.60;77.80
84276;DHT22;74432;51.212;3.254;2024-03-08T03:55:13;5.70;77.90
84276;DHT22;74432;51.212;3.254;2024-03-08T03:57:39;5.70;77.80
84276;DHT22;74432;51.212;3.254;2024-03-08T04:00:06;5.60;78.00
84276;DHT22;74432;51.212;3.254;2024-03-08T04:02:39;5.70;78.40
84276;DHT22;74432;51.212;3.254;2024-03-08T04:05:06;5.80;77.50
84276;DHT22;74432;51.212;3.254;2024-03-08T04:07:32;5.70;77.70
84276;DHT22;74432;51.212;3.254;2024-03-08T04:10:17;5.60;78.30
84276;DHT22;74432;51.212;3.254;2024-03-08T04:12:43;5.70;77.80
84276;DHT22;74432;51.212;3.254;2024-03-08T04:15:09;5.80;77.50
84276;DHT22;74432;51.212;3.254;2024-03-08T04:17:36;5.80;77.00
84276;DHT22;74432;51.212;3.254;2024-03-08T04:20:05;5.80;76.90
84276;DHT22;74432;51.212;3.254;2024-03-08T04:22:36;5.80;76.90
84276;DHT22;74432;51.212;3.254;2024-03-08T04:25:03;5.70;76.80
84276;DHT22;74432;51.212;3.254;2024-03-08T04:27:28;5.70;76.70
84276;DHT22;74432;51.212;3.254;2024-03-08T04:29:57;5.70;76.80
84276;DHT22;74432;51.212;3.254;2024-03-08T04:32:25;5.70;76.30
84276;DHT22;74432;51.212;3.254;2024-03-08T04:34:51;5.70;76.30
84276;DHT22;74432;51.212;3.254;2024-03-08T04:37:17;5.70;76.40
84276;DHT22;74432;51.212;3.254;2024-03-08T04:39:48;5.50;76.40
84276;DHT22;74432;51.212;3.254;2024-03-08T04:42:14;5.40;76.60
84276;DHT22;74432;51.212;3.254;2024-03-08T04:44:40;5.30;77.70
84276;DHT22;74432;51.212;3.254;2024-03-08T04:47:06;5.40;77.10
84276;DHT22;74432;51.212;3.254;2024-03-08T04:49:33;5.40;77.10
84276;DHT22;74432;51.212;3.254;2024-03-08T04:52:01;5.50;77.10
84276;DHT22;74432;51.212;3.254;2024-03-08T04:54:28;5.30;77.10
84276;DHT22;74432;51.212;3.254;2024-03-08T04:56:54;5.30;76.90
84276;DHT22;74432;51.212;3.254;2024-03-08T04:59:19;5.30;76.80
84276;DHT22;74432;51.212;3.254;2024-03-08T05:01:45;5.30;78.30
84276;DHT22;74432;51.212;3.254;2024-03-08T05:04:11;5.30;76.90
84276;DHT22;74432;51.212;3.254;2024-03-08T05:06:36;5.40;76.90
84276;DHT22;74432;51.212;3.254;2024-03-08T05:09:02;5.50;76.10
84276;DHT22;74432;51.212;3.254;2024-03-08T05:11:47;5.50;76.30
84276;DHT22;74432;51.212;3.254;2024-03-08T05:14:14;5.40;75.90
84276;DHT22;74432;51.212;3.254;2024-03-08T05:16:46;5.40;76.10
84276;DHT22;74432;51.212;3.254;2024-03-08T05:19:19;5.50;75.80
84276;DHT22;74432;51.212;3.254;2024-03-08T05:21:45;5.30;76.20
84276;DHT22;74432;51.212;3.254;2024-03-08T05:24:11;5.30;76.60
84276;DHT22;74432;51.212;3.254;2024-03-08T05:26:37;5.20;76.30
84276;DHT22;74432;51.212;3.254;2024-03-08T05:29:05;5.20;76.50
84276;DHT22;74432;51.212;3.254;2024-03-08T05:31:52;5.30;76.20
84276;DHT22;74432;51.212;3.254;2024-03-08T05:34:18;5.30;76.20
84276;DHT22;74432;51.212;3.254;2024-03-08T05:36:45;5.30;75.70
84276;DHT22;74432;51.212;3.254;2024-03-08T05:39:20;5.20;76.20
84276;DHT22;74432;51.212;3.254;2024-03-08T05:41:47;5.10;77.00
84276;DHT22;74432;51.212;3.254;2024-03-08T05:44:13;5.20;76.80
84276;DHT22;74432;51.212;3.254;2024-03-08T05:46:39;5.20;76.70
84276;DHT22;74432;51.212;3.254;2024-03-08T05:49:06;5.30;76.10
84276;DHT22;74432;51.212;3.254;2024-03-08T05:51:33;5.20;76.00
84276;DHT22;74432;51.212;3.254;2024-03-08T05:54:02;5.20;76.20
84276;DHT22;74432;51.212;3.254;2024-03-08T05:56:29;5.20;76.40
84276;DHT22;74432;51.212;3.254;2024-03-08T05:58:55;5.30;76.50
84276;DHT22;74432;51.212;3.254;2024-03-08T06:01:20;5.30;75.50
84276;DHT22;74432;51.212;3.254;2024-03-08T06:03:47;5.20;74.90
84276;DHT22;74432;51.212;3.254;2024-03-08T06:06:14;5.20;75.80
84276;DHT22;74432;51.212;3.254;2024-03-08T06:08:41;5.20;76.00
84276;DHT22;74432;51.212;3.254;2024-03-08T06:11:09;5.00;76.40
84276;DHT22;74432;51.212;3.254;2024-03-08T06:13:35;5.20;75.60
84276;DHT22;74432;51.212;3.254;2024-03-08T06:16:01;5.20;76.10
84276;DHT22;74432;51.212;3.254;2024-03-08T06:18:30;5.10;75.80
84276;DHT22;74432;51.212;3.254;2024-03-08T06:20:56;5.10;76.30
84276;DHT22;74432;51.212;3.254;2024-03-08T06:23:22;5.10;76.10
84276;DHT22;74432;51.212;3.254;2024-03-08T06:25:48;5.10;76.40
84276;DHT22;74432;51.212;3.254;2024-03-08T06:28:13;5.00;76.30
84276;DHT22;74432;51.212;3.254;2024-03-08T06:30:40;5.20;75.70
84276;DHT22;74432;51.212;3.254;2024-03-08T06:33:05;5.20;75.60
84276;DHT22;74432;51.212;3.254;2024-03-08T06:35:43;5.20;75.40
84276;DHT22;74432;51.212;3.254;2024-03-08T06:38:12;5.30;75.10
84276;DHT22;74432;51.212;3.254;2024-03-08T06:40:41;5.20;75.10
84276;DHT22;74432;51.212;3.254;2024-03-08T06:43:07;5.10;75.80
84276;DHT22;74432;51.212;3.254;2024-03-08T06:45:33;5.00;76.00
84276;DHT22;74432;51.212;3.254;2024-03-08T06:47:59;4.90;76.60
84276;DHT22;74432;51.212;3.254;2024-03-08T06:50:25;5.00;76.70
84276;DHT22;74432;51.212;3.254;2024-03-08T06:52:51;5.10;76.50
84276;DHT22;74432;51.212;3.254;2024-03-08T06:55:19;5.00;76.30
84276;DHT22;74432;51.212;3.254;2024-03-08T06:57:45;4.90;77.00
84276;DHT22;74432;51.212;3.254;2024-03-08T07:00:11;5.00;75.70
84276;DHT22;74432;51.212;3.254;2024-03-08T07:02:44;5.00;76.30
84276;DHT22;74432;51.212;3.254;2024-03-08T07:05:11;5.00;76.70
84276;DHT22;74432;51.212;3.254;2024-03-08T07:07:37;5.00;76.20
84276;DHT22;74432;51.212;3.254;2024-03-08T07:10:03;5.00;76.40
84276;DHT22;74432;51.212;3.254;2024-03-08T07:12:30;5.00;76.40
84276;DHT22;74432;51.212;3.254;2024-03-08T07:14:55;5.10;76.40
84276;DHT22;74432;51.212;3.254;2024-03-08T07:17:21;5.20;76.10
84276;DHT22;74432;51.212;3.254;2024-03-08T07:19:47;5.40;75.70
84276;DHT22;74432;51.212;3.254;2024-03-08T07:22:13;5.30;75.30
84276;DHT22;74432;51.212;3.254;2024-03-08T07:24:40;5.30;75.80
84276;DHT22;74432;51.212;3.254;2024-03-08T07:27:21;5.30;75.40
84276;DHT22;74432;51.212;3.254;2024-03-08T07:29:47;5.40;75.40
84276;DHT22;74432;51.212;3.254;2024-03-08T07:32:13;5.50;75.40
84276;DHT22;74432;51.212;3.254;2024-03-08T07:34:51;5.50;75.30
84276;DHT22;74432;51.212;3.254;2024-03-08T07:37:17;5.50;75.30
84276;DHT22;74432;51.212;3.254;2024-03-08T07:39:47;5.50;74.70
84276;DHT22;74432;51.212;3.254;2024-03-08T07:42:13;5.50;75.00
84276;DHT22;74432;51.212;3.254;2024-03-08T07:44:39;5.50;75.40
84276;DHT22;74432;51.212;3.254;2024-03-08T07:47:05;5.50;75.00
84276;DHT22;74432;51.212;3.254;2024-03-08T07:49:35;5.50;75.10
84276;DHT22;74432;51.212;3.254;2024-03-08T07:52:01;5.60;74.80
84276;DHT22;74432;51.212;3.254;2024-03-08T07:54:27;5.70;74.40
84276;DHT22;74432;51.212;3.254;2024-03-08T07:56:52;5.70;74.60
84276;DHT22;74432;51.212;3.254;2024-03-08T07:59:19;5.90;74.40
84276;DHT22;74432;51.212;3.254;2024-03-08T08:01:46;6.20;73.40
84276;DHT22;74432;51.212;3.254;2024-03-08T08:04:12;6.10;72.50
84276;DHT22;74432;51.212;3.254;2024-03-08T08:06:40;6.20;72.90
84276;DHT22;74432;51.212;3.254;2024-03-08T08:09:09;6.20;73.60
84276;DHT22;74432;51.212;3.254;2024-03-08T08:11:42;6.10;72.70
84276;DHT22;74432;51.212;3.254;2024-03-08T08:14:09;5.90;73.40
84276;DHT22;74432;51.212;3.254;2024-03-08T08:16:36;5.90;74.30
84276;DHT22;74432;51.212;3.254;2024-03-08T08:19:06;6.10;73.80
84276;DHT22;74432;51.212;3.254;2024-03-08T08:21:36;6.30;73.10
84276;DHT22;74432;51.212;3.254;2024-03-08T08:24:03;6.40;73.10
84276;DHT22;74432;51.212;3.254;2024-03-08T08:26:29;6.40;72.00
84276;DHT22;74432;51.212;3.254;2024-03-08T08:28:55;6.60;71.60
84276;DHT22;74432;51.212;3.254;2024-03-08T08:31:21;6.70;71.30
84276;DHT22;74432;51.212;3.254;2024-03-08T08:33:46;6.70;71.30
84276;DHT22;74432;51.212;3.254;2024-03-08T08:36:14;6.70;71.60
84276;DHT22;74432;51.212;3.254;2024-03-08T08:38:40;6.90;71.20
84276;DHT22;74432;51.212;3.254;2024-03-08T08:41:09;6.90;71.00
84276;DHT22;74432;51.212;3.254;2024-03-08T08:43:36;7.00;70.90
84276;DHT22;74432;51.212;3.254;2024-03-08T08:46:02;7.00;69.60
84276;DHT22;74432;51.212;3.254;2024-03-08T08:48:28;7.00;69.90
84276;DHT22;74432;51.212;3.254;2024-03-08T08:50:56;7.10;69.80
84276;DHT22;74432;51.212;3.254;2024-03-08T08:53:21;7.20;69.10
84276;DHT22;74432;51.212;3.254;2024-03-08T08:55:47;7.20;68.70
84276;DHT22;74432;51.212;3.254;2024-03-08T08:58:13;7.20;69.80
84276;DHT22;74432;51.212;3.254;2024-03-08T09:00:39;7.30;68.70
84276;DHT22;74432;51.212;3.254;2024-03-08T09:03:05;7.30;68.80
84276;DHT22;74432;51.212;3.254;2024-03-08T09:05:34;7.30;68.90
84276;DHT22;74432;51.212;3.254;2024-03-08T09:08:00;7.30;69.00
84276;DHT22;74432;51.212;3.254;2024-03-08T09:10:26;7.40;68.60
84276;DHT22;74432;51.212;3.254;2024-03-08T09:12:53;7.40;68.80
84276;DHT22;74432;51.212;3.254;2024-03-08T09:15:19;7.60;69.60
84276;DHT22;74432;51.212;3.254;2024-03-08T09:17:46;7.60;68.10
84276;DHT22;74432;51.212;3.254;2024-03-08T09:20:14;7.60;68.40
84276;DHT22;74432;51.212;3.254;2024-03-08T09:22:44;7.70;67.90
84276;DHT22;74432;51.212;3.254;2024-03-08T09:25:10;7.80;67.10
84276;DHT22;74432;51.212;3.254;2024-03-08T09:27:35;7.80;66.60
84276;DHT22;74432;51.212;3.254;2024-03-08T09:30:01;7.80;66.50
84276;DHT22;74432;51.212;3.254;2024-03-08T09:32:27;7.90;67.50
84276;DHT22;74432;51.212;3.254;2024-03-08T09:34:53;8.10;66.40
84276;DHT22;74432;51.212;3.254;2024-03-08T09:37:18;8.10;65.80
84276;DHT22;74432;51.212;3.254;2024-03-08T09:39:44;8.20;65.80
84276;DHT22;74432;51.212;3.254;2024-03-08T09:42:11;8.20;66.30
84276;DHT22;74432;51.212;3.254;2024-03-08T09:44:46;8.40;66.30
84276;DHT22;74432;51.212;3.254;2024-03-08T09:47:15;8.50;65.20
84276;DHT22;74432;51.212;3.254;2024-03-08T09:49:42;8.40;65.40
84276;DHT22;74432;51.212;3.254;2024-03-08T09:52:08;8.60;65.00
84276;DHT22;74432;51.212;3.254;2024-03-08T09:54:35;8.50;64.80
84276;DHT22;74432;51.212;3.254;2024-03-08T09:57:03;8.40;65.30
84276;DHT22;74432;51.212;3.254;2024-03-08T09:59:30;8.40;65.40
84276;DHT22;74432;51.212;3.254;2024-03-08T10:02:01;8.60;65.10
84276;DHT22;74432;51.212;3.254;2024-03-08T10:04:28;8.70;64.60
84276;DHT22;74432;51.212;3.254;2024-03-08T10:06:57;8.80;64.50
84276;DHT22;74432;51.212;3.254;2024-03-08T10:09:25;8.90;63.90
84276;DHT22;74432;51.212;3.254;2024-03-08T10:11:59;8.80;63.70
84276;DHT22;74432;51.212;3.254;2024-03-08T10:14:28;8.90;63.70
84276;DHT22;74432;51.212;3.254;2024-03-08T10:16:54;8.90;62.80
84276;DHT22;74432;51.212;3.254;2024-03-08T10:19:20;9.00;63.20
84276;DHT22;74432;51.212;3.254;2024-03-08T10:21:49;9.10;62.70
84276;DHT22;74432;51.212;3.254;2024-03-08T10:24:15;9.10;64.00
84276;DHT22;74432;51.212;3.254;2024-03-08T10:26:41;9.20;62.80
84276;DHT22;74432;51.212;3.254;2024-03-08T10:29:09;9.20;62.60
84276;DHT22;74432;51.212;3.254;2024-03-08T10:31:36;9.30;62.20
84276;DHT22;74432;51.212;3.254;2024-03-08T10:34:04;9.50;61.90
84276;DHT22;74432;51.212;3.254;2024-03-08T10:36:30;9.60;60.70
84276;DHT22;74432;51.212;3.254;2024-03-08T10:39:01;9.50;60.80
84276;DHT22;74432;51.212;3.254;2024-03-08T10:41:29;9.30;60.70
84276;DHT22;74432;51.212;3.254;2024-03-08T10:44:20;9.20;61.30
84276;DHT22;74432;51.212;3.254;2024-03-08T10:49:30;9.40;62.00
84276;DHT22;74432;51.212;3.254;2024-03-08T10:51:57;9.40;62.10
84276;DHT22;74432;51.212;3.254;2024-03-08T10:54:25;9.50;61.70
84276;DHT22;74432;51.212;3.254;2024-03-08T10:56:51;9.60;61.10
84276;DHT22;74432;51.212;3.254;2024-03-08T10:59:21;9.60;60.50
84276;DHT22;74432;51.212;3.254;2024-03-08T11:01:47;9.50;60.40
84276;DHT22;74432;51.212;3.254;2024-03-08T11:04:13;9.60;61.10
84276;DHT22;74432;51.212;3.254;2024-03-08T11:06:42;9.60;61.00
84276;DHT22;74432;51.212;3.254;2024-03-08T11:09:27;9.80;60.80
84276;DHT22;74432;51.212;3.254;2024-03-08T11:12:26;9.90;59.90
84276;DHT22;74432;51.212;3.254;2024-03-08T11:15:10;9.80;60.50
84276;DHT22;74432;51.212;3.254;2024-03-08T11:20:18;9.90;59.40
84276;DHT22;74432;51.212;3.254;2024-03-08T11:23:00;10.00;60.40
84276;DHT22;74432;51.212;3.254;2024-03-08T11:30:47;10.00;59.10
84276;DHT22;74432;51.212;3.254;2024-03-08T11:33:30;10.00;59.30
84276;DHT22;74432;51.212;3.254;2024-03-08T11:36:11;10.10;59.40
84276;DHT22;74432;51.212;3.254;2024-03-08T11:38:46;10.00;59.70
84276;DHT22;74432;51.212;3.254;2024-03-08T11:41:22;9.90;59.90
84276;DHT22;74432;51.212;3.254;2024-03-08T11:43:52;10.20;59.50
84276;DHT22;74432;51.212;3.254;2024-03-08T11:46:26;10.30;59.20
84276;DHT22;74432;51.212;3.254;2024-03-08T11:48:54;10.40;59.30
84276;DHT22;74432;51.212;3.254;2024-03-08T11:51:23;10.40;58.30
84276;DHT22;74432;51.212;3.254;2024-03-08T11:53:49;10.30;58.20
84276;DHT22;74432;51.212;3.254;2024-03-08T11:56:18;10.30;58.50
84276;DHT22;74432;51.212;3.254;2024-03-08T11:58:56;10.30;59.10
84276;DHT22;74432;51.212;3.254;2024-03-08T12:01:26;10.40;59.20
84276;DHT22;74432;51.212;3.254;2024-03-08T12:03:54;10.50;58.80
84276;DHT22;74432;51.212;3.254;2024-03-08T12:06:21;10.40;58.50
84276;DHT22;74432;51.212;3.254;2024-03-08T12:08:47;10.40;58.40
84276;DHT22;74432;51.212;3.254;2024-03-08T12:11:20;10.60;58.40
84276;DHT22;74432;51.212;3.254;2024-03-08T12:13:49;10.70;58.20
84276;DHT22;74432;51.212;3.254;2024-03-08T12:16:18;10.90;57.80
84276;DHT22;74432;51.212;3.254;2024-03-08T12:18:44;10.90;58.40
84276;DHT22;74432;51.212;3.254;2024-03-08T12:21:12;11.00;56.90
84276;DHT22;74432;51.212;3.254;2024-03-08T12:23:40;11.00;57.40
84276;DHT22;74432;51.212;3.254;2024-03-08T12:26:13;10.90;57.00
84276;DHT22;74432;51.212;3.254;2024-03-08T12:28:43;11.00;57.40
84276;DHT22;74432;51.212;3.254;2024-03-08T12:31:16;11.10;56.80
84276;DHT22;74432;51.212;3.254;2024-03-08T12:33:52;11.30;57.50
84276;DHT22;74432;51.212;3.254;2024-03-08T12:36:19;11.30;56.90
84276;DHT22;74432;51.212;3.254;2024-03-08T12:38:48;11.40;57.20
84276;DHT22;74432;51.212;3.254;2024-03-08T12:41:18;11.50;56.40
84276;DHT22;74432;51.212;3.254;2024-03-08T12:43:48;11.60;55.80
84276;DHT22;74432;51.212;3.254;2024-03-08T12:46:17;11.70;56.40
84276;DHT22;74432;51.212;3.254;2024-03-08T12:48:46;11.70;56.00
84276;DHT22;74432;51.212;3.254;2024-03-08T12:51:15;11.70;56.10
84276;DHT22;74432;51.212;3.254;2024-03-08T12:53:42;11.90;55.50
84276;DHT22;74432;51.212;3.254;2024-03-08T12:56:36;12.00;56.00
84276;DHT22;74432;51.212;3.254;2024-03-08T12:59:07;12.00;55.00
84276;DHT22;74432;51.212;3.254;2024-03-08T13:01:36;12.00;54.80
84276;DHT22;74432;51.212;3.254;2024-03-08T13:04:05;12.10;55.40
84276;DHT22;74432;51.212;3.254;2024-03-08T13:06:32;12.10;55.30
84276;DHT22;74432;51.212;3.254;2024-03-08T13:08:58;12.30;54.50
84276;DHT22;74432;51.212;3.254;2024-03-08T13:11:24;12.40;54.90
84276;DHT22;74432;51.212;3.254;2024-03-08T13:13:51;12.50;54.60
84276;DHT22;74432;51.212;3.254;2024-03-08T13:16:18;12.50;53.80
84276;DHT22;74432;51.212;3.254;2024-03-08T13:18:45;12.50;54.20
84276;DHT22;74432;51.212;3.254;2024-03-08T13:21:14;12.60;54.30
84276;DHT22;74432;51.212;3.254;2024-03-08T13:23:42;12.60;53.50
84276;DHT22;74432;51.212;3.254;2024-03-08T13:26:12;12.60;54.40
84276;DHT22;74432;51.212;3.254;2024-03-08T13:28:47;12.50;54.00
84276;DHT22;74432;51.212;3.254;2024-03-08T13:31:19;12.60;55.00
84276;DHT22;74432;51.212;3.254;2024-03-08T13:33:45;12.70;55.40
84276;DHT22;74432;51.212;3.254;2024-03-08T13:36:12;12.90;54.20
84276;DHT22;74432;51.212;3.254;2024-03-08T13:38:42;13.00;53.80
84276;DHT22;74432;51.212;3.254;2024-03-08T13:41:09;13.00;53.60
84276;DHT22;74432;51.212;3.254;2024-03-08T13:43:36;13.00;53.80
84276;DHT22;74432;51.212;3.254;2024-03-08T13:46:03;13.00;52.60
84276;DHT22;74432;51.212;3.254;2024-03-08T13:48:29;12.90;53.10
84276;DHT22;74432;51.212;3.254;2024-03-08T13:50:57;13.00;53.00
84276;DHT22;74432;51.212;3.254;2024-03-08T13:53:22;12.90;53.60
84276;DHT22;74432;51.212;3.254;2024-03-08T13:55:49;13.00;53.30
84276;DHT22;74432;51.212;3.254;2024-03-08T13:58:16;13.10;53.30
84276;DHT22;74432;51.212;3.254;2024-03-08T14:00:41;13.20;53.00
84276;DHT22;74432;51.212;3.254;2024-03-08T14:03:10;13.50;52.70
84276;DHT22;74432;51.212;3.254;2024-03-08T14:05:41;13.30;52.40
84276;DHT22;74432;51.212;3.254;2024-03-08T14:08:11;13.50;52.00
84276;DHT22;74432;51.212;3.254;2024-03-08T14:10:38;13.30;52.00
84276;DHT22;74432;51.212;3.254;2024-03-08T14:13:04;13.30;52.90
84276;DHT22;74432;51.212;3.254;2024-03-08T14:15:33;13.30;52.20
84276;DHT22;74432;51.212;3.254;2024-03-08T14:18:00;13.50;53.40
84276;DHT22;74432;51.212;3.254;2024-03-08T14:20:27;13.60;51.40
84276;DHT22;74432;51.212;3.254;2024-03-08T14:22:56;13.60;51.50
84276;DHT22;74432;51.212;3.254;2024-03-08T14:25:23;13.70;51.50
84276;DHT22;74432;51.212;3.254;2024-03-08T14:27:50;13.60;50.80
84276;DHT22;74432;51.212;3.254;2024-03-08T14:30:19;13.50;51.10
84276;DHT22;74432;51.212;3.254;2024-03-08T14:33:07;13.50;51.40
84276;DHT22;74432;51.212;3.254;2024-03-08T14:35:37;13.60;51.60
84276;DHT22;74432;51.212;3.254;2024-03-08T14:38:02;13.70;51.40
84276;DHT22;74432;51.212;3.254;2024-03-08T14:40:28;13.80;51.00
84276;DHT22;74432;51.212;3.254;2024-03-08T14:42:56;13.70;51.20
84276;DHT22;74432;51.212;3.254;2024-03-08T14:45:22;13.70;51.50
84276;DHT22;74432;51.212;3.254;2024-03-08T14:47:50;13.60;50.80
84276;DHT22;74432;51.212;3.254;2024-03-08T14:50:19;13.60;51.00
84276;DHT22;74432;51.212;3.254;2024-03-08T14:52:46;13.60;51.40
84276;DHT22;74432;51.212;3.254;2024-03-08T14:55:15;13.70;52.30
84276;DHT22;74432;51.212;3.254;2024-03-08T14:57:41;13.80;51.00
84276;DHT22;74432;51.212;3.254;2024-03-08T15:00:11;13.70;50.10
84276;DHT22;74432;51.212;3.254;2024-03-08T15:02:45;13.60;50.50
84276;DHT22;74432;51.212;3.254;2024-03-08T15:05:13;13.60;50.80
84276;DHT22;74432;51.212;3.254;2024-03-08T15:07:40;13.60;50.60
84276;DHT22;74432;51.212;3.254;2024-03-08T15:10:09;13.60;51.40
84276;DHT22;74432;51.212;3.254;2024-03-08T15:12:40;13.40;51.30
84276;DHT22;74432;51.212;3.254;2024-03-08T15:15:09;13.40;51.20
84276;DHT22;74432;51.212;3.254;2024-03-08T15:17:35;13.30;51.00
84276;DHT22;74432;51.212;3.254;2024-03-08T15:20:02;13.20;51.50
84276;DHT22;74432;51.212;3.254;2024-03-08T15:22:29;13.30;51.40
84276;DHT22;74432;51.212;3.254;2024-03-08T15:24:54;13.30;51.10
84276;DHT22;74432;51.212;3.254;2024-03-08T15:27:23;13.10;51.30
84276;DHT22;74432;51.212;3.254;2024-03-08T15:29:49;13.20;50.80
84276;DHT22;74432;51.212;3.254;2024-03-08T15:32:17;13.10;51.30
84276;DHT22;74432;51.212;3.254;2024-03-08T15:34:46;13.10;52.10
84276;DHT22;74432;51.212;3.254;2024-03-08T15:37:12;12.90;53.10
84276;DHT22;74432;51.212;3.254;2024-03-08T15:39:43;12.90;53.70
84276;DHT22;74432;51.212;3.254;2024-03-08T15:42:09;13.00;54.10
84276;DHT22;74432;51.212;3.254;2024-03-08T15:44:37;13.10;53.70
84276;DHT22;74432;51.212;3.254;2024-03-08T15:47:04;13.10;53.10
84276;DHT22;74432;51.212;3.254;2024-03-08T15:49:32;13.10;52.50
84276;DHT22;74432;51.212;3.254;2024-03-08T15:51:58;13.00;53.20
84276;DHT22;74432;51.212;3.254;2024-03-08T15:54:24;13.10;53.90
84276;DHT22;74432;51.212;3.254;2024-03-08T15:56:50;13.10;52.80